Time;durP1;ratioP1;P1;durP2;ratioP2;P2;SDS_P1;SDS_P2;PMS_P1;PMS_P2;Temp;Humidity;BMP_temperature;BMP_pressure;BME280_temperature;BME280_humidity;BME280_pressure;Samples;Min_cycle;Max_cycle;Signal;HPM_P1;HPM_P2
2021/12/01 00:00:19;;;;;;;22.67;3.13;;;11.30;99.90;;;;;;5013356;28;20396;-71
2021/12/01 00:02:53;;;;;;;32.15;3.03;;;11.40;99.90;;;;;;5028922;28;20044;-70
2021/12/01 00:05:25;;;;;;;14.75;2.15;;;11.40;99.90;;;;;;5030291;28;20047;-70
2021/12/01 00:07:52;;;;;;;21.58;2.97;;;11.50;99.90;;;;;;5026444;28;20021;-69
2021/12/01 00:10:19;;;;;;;26.27;2.78;;;11.50;99.90;;;;;;5030774;28;20056;-70
2021/12/01 00:12:46;;;;;;;27.70;3.58;;;11.50;99.90;;;;;;5031061;28;20029;-71
2021/12/01 00:15:12;;;;;;;32.35;4.15;;;11.50;99.90;;;;;;5030455;28;20450;-70
2021/12/01 00:17:38;;;;;;;;;;;11.60;99.90;;;;;;5031252;28;20370;-70
2021/12/01 00:20:11;;;;;;;24.95;3.20;;;11.60;99.90;;;;;;5029301;28;19912;-70
2021/12/01 00:22:44;;;;;;;22.15;2.97;;;11.60;99.90;;;;;;5022731;28;20459;-70
2021/12/01 00:25:12;;;;;;;24.75;2.65;;;11.60;99.90;;;;;;5032633;28;20033;-70
2021/12/01 00:27:38;;;;;;;18.77;2.85;;;11.60;99.90;;;;;;5023711;28;20033;-70
2021/12/01 00:30:05;;;;;;;29.33;3.33;;;11.60;99.90;;;;;;5030862;28;20037;-71
2021/12/01 00:32:33;;;;;;;23.95;2.72;;;11.60;99.90;;;;;;5027880;28;20425;-70
2021/12/01 00:35:01;;;;;;;27.17;3.00;;;11.60;99.90;;;;;;5030180;28;20520;-71
2021/12/01 00:37:27;;;;;;;22.15;2.78;;;11.60;99.90;;;;;;5028236;28;20063;-71
2021/12/01 00:39:52;;;;;;;27.27;2.70;;;11.60;99.90;;;;;;5026940;28;20478;-71
2021/12/01 00:42:19;;;;;;;21.25;2.88;;;11.60;99.90;;;;;;5014259;28;20108;-69
2021/12/01 00:44:47;;;;;;;;;;;11.60;99.90;;;;;;5036572;28;20416;-69
2021/12/01 00:47:14;;;;;;;17.35;2.47;;;11.50;99.90;;;;;;5027255;28;19909;-70
2021/12/01 00:49:41;;;;;;;23.38;2.75;;;11.50;99.90;;;;;;5027790;28;20025;-69
2021/12/01 00:52:08;;;;;;;24.67;3.40;;;11.50;99.90;;;;;;5008958;28;20029;-71
2021/12/01 00:54:34;;;;;;;22.17;3.35;;;11.50;99.90;;;;;;5025949;28;20026;-72
2021/12/01 00:57:00;;;;;;;;;;;11.50;99.90;;;;;;5029713;28;20329;-71
2021/12/01 00:59:26;;;;;;;20.92;2.65;;;11.50;99.90;;;;;;5028434;28;19915;-70
2021/12/01 01:01:52;;;;;;;15.25;2.83;;;11.40;99.90;;;;;;5013186;28;20032;-70
2021/12/01 01:04:18;;;;;;;23.90;3.25;;;11.40;99.90;;;;;;5026424;28;20037;-70
2021/12/01 01:06:44;;;;;;;26.15;2.92;;;11.40;99.90;;;;;;5024700;28;20045;-70
2021/12/01 01:09:10;;;;;;;18.75;3.03;;;11.40;99.90;;;;;;5027040;28;20429;-70
2021/12/01 01:17:13;;;;;;;22.98;3.03;;;11.40;99.90;;;;;;5030892;28;20041;-70
2021/12/01 01:19:40;;;;;;;22.17;3.13;;;11.40;99.90;;;;;;5025494;28;20069;-70
2021/12/01 01:22:07;;;;;;;24.25;2.97;;;11.40;99.90;;;;;;5024469;28;20116;-71
2021/12/01 01:24:37;;;;;;;22.92;3.30;;;11.40;99.90;;;;;;5031126;28;20037;-70
2021/12/01 01:27:06;;;;;;;27.38;3.53;;;11.40;99.90;;;;;;5019149;28;20054;-71
2021/12/01 01:29:36;;;;;;;17.35;2.85;;;11.40;99.90;;;;;;5028990;28;20392;-70
2021/12/01 01:32:03;;;;;;;24.40;3.13;;;11.50;99.90;;;;;;5025410;28;20021;-70
2021/12/01 01:34:28;;;;;;;17.55;2.50;;;11.50;99.90;;;;;;5012464;28;20065;-71
2021/12/01 01:36:54;;;;;;;16.23;2.85;;;11.50;99.90;;;;;;5020520;28;20526;-70
2021/12/01 01:39:20;;;;;;;22.80;3.03;;;11.50;99.90;;;;;;5012190;28;20033;-70
2021/12/01 01:41:46;;;;;;;20.67;3.35;;;11.50;99.90;;;;;;5012575;28;20021;-71
2021/12/01 01:44:12;;;;;;;32.63;3.60;;;11.50;99.90;;;;;;5020746;28;20506;-70
2021/12/01 01:46:40;;;;;;;33.03;3.55;;;11.40;99.90;;;;;;5006816;28;20038;-70
2021/12/01 01:49:18;;;;;;;21.60;2.88;;;11.40;99.90;;;;;;5037825;28;20056;-70
2021/12/01 01:51:46;;;;;;;19.90;2.90;;;11.40;99.90;;;;;;5019125;28;20029;-69
2021/12/01 01:54:12;;;;;;;18.67;3.05;;;11.40;99.90;;;;;;5024493;28;20021;-70
2021/12/01 01:56:38;;;;;;;26.80;4.15;;;11.30;99.90;;;;;;5031713;28;20041;-70
2021/12/01 01:59:04;;;;;;;25.05;3.40;;;11.30;99.90;;;;;;5025059;28;20361;-70
2021/12/01 02:01:46;;;;;;;24.45;2.63;;;11.30;99.90;;;;;;5011513;28;20021;-69
2021/12/01 02:04:15;;;;;;;21.85;3.10;;;11.30;99.90;;;;;;5028626;28;20053;-70
2021/12/01 02:06:46;;;;;;;22.70;3.03;;;11.30;99.90;;;;;;5028955;28;20120;-70
2021/12/01 02:09:12;;;;;;;16.95;2.45;;;11.20;99.90;;;;;;5005372;28;20050;-70
2021/12/01 02:11:38;;;;;;;18.90;2.90;;;11.20;99.90;;;;;;5009166;28;20022;-71
2021/12/01 02:14:05;;;;;;;22.60;2.85;;;11.20;99.90;;;;;;5008694;28;20036;-70
2021/12/01 02:16:31;;;;;;;16.70;2.45;;;11.20;99.90;;;;;;5005192;28;20062;-70
2021/12/01 02:18:57;;;;;;;18.95;2.65;;;11.30;99.90;;;;;;5008108;28;20090;-72
2021/12/01 02:21:28;;;;;;;24.33;3.03;;;11.30;99.90;;;;;;5008277;28;20030;-70
2021/12/01 02:23:59;;;;;;;28.73;2.95;;;11.20;99.90;;;;;;5018787;28;20473;-70
2021/12/01 02:26:27;;;;;;;22.55;3.50;;;11.30;99.90;;;;;;5009925;28;20500;-70
2021/12/01 02:28:59;;;;;;;19.92;2.83;;;11.20;99.90;;;;;;5008837;28;20060;-70
2021/12/01 02:31:28;;;;;;;18.13;2.97;;;11.20;99.90;;;;;;5001776;28;20022;-70
2021/12/01 02:33:56;;;;;;;22.05;2.55;;;11.30;99.90;;;;;;5003602;28;20053;-70
2021/12/01 02:36:23;;;;;;;14.30;2.53;;;11.20;99.90;;;;;;5009782;28;20065;-69
2021/12/01 02:38:49;;;;;;;15.40;2.50;;;11.20;99.90;;;;;;4989142;28;20852;-69
2021/12/01 02:41:16;;;;;;;13.73;2.55;;;11.20;99.90;;;;;;5004161;28;20058;-71
2021/12/01 02:43:44;;;;;;;8.50;1.92;;;11.20;99.90;;;;;;5006728;28;20049;-70
2021/12/01 02:46:10;;;;;;;15.45;2.65;;;11.20;99.90;;;;;;5014822;28;20025;-70
2021/12/01 02:48:41;;;;;;;13.45;2.35;;;11.20;99.90;;;;;;5011092;28;20105;-71
2021/12/01 02:51:09;;;;;;;10.85;2.25;;;11.20;99.90;;;;;;5009201;28;20089;-70
2021/12/01 02:53:35;;;;;;;14.25;2.40;;;11.20;99.90;;;;;;5008340;28;20022;-69
2021/12/01 02:56:03;;;;;;;10.95;1.73;;;11.10;99.90;;;;;;5014105;28;20523;-71
2021/12/01 02:58:33;;;;;;;8.93;1.85;;;11.10;99.90;;;;;;5008358;28;20031;-71
2021/12/01 03:01:12;;;;;;;13.32;2.00;;;11.10;99.90;;;;;;5003963;28;20030;-70
2021/12/01 03:03:39;;;;;;;14.38;2.22;;;11.10;99.90;;;;;;5007116;28;20036;-70
2021/12/01 03:06:06;;;;;;;8.70;1.98;;;11.00;99.90;;;;;;5011235;28;20069;-71
2021/12/01 03:08:33;;;;;;;11.88;1.92;;;11.00;99.90;;;;;;5011716;28;20042;-70
2021/12/01 03:11:02;;;;;;;15.68;2.25;;;11.00;99.90;;;;;;5029168;28;20049;-71
2021/12/01 03:13:27;;;;;;;13.52;2.20;;;11.00;99.90;;;;;;5031270;28;20037;-70
2021/12/01 03:15:54;;;;;;;9.48;2.05;;;11.00;99.90;;;;;;5026403;28;20021;-70
2021/12/01 03:18:20;;;;;;;8.95;1.92;;;11.00;99.90;;;;;;5029339;28;20104;-69
2021/12/01 03:20:47;;;;;;;9.02;1.90;;;10.90;99.90;;;;;;5027600;28;20021;-71
2021/12/01 03:23:13;;;;;;;;;;;10.90;99.90;;;;;;5030672;28;20025;-70
2021/12/01 03:25:38;;;;;;;5.45;1.48;;;10.90;99.90;;;;;;5027722;28;19909;-71
2021/12/01 03:28:07;;;;;;;8.63;1.58;;;10.80;99.90;;;;;;5038034;28;20055;-70
2021/12/01 03:30:34;;;;;;;8.35;1.60;;;10.90;99.90;;;;;;5031289;28;20339;-70
2021/12/01 03:33:01;;;;;;;6.60;1.20;;;10.80;99.90;;;;;;5030759;28;20068;-70
2021/12/01 03:35:27;;;;;;;6.75;1.38;;;10.80;99.90;;;;;;5029721;28;20090;-71
2021/12/01 03:37:53;;;;;;;7.13;1.20;;;10.80;99.90;;;;;;5032538;28;20132;-71
2021/12/01 03:40:18;;;;;;;3.25;0.85;;;10.90;99.90;;;;;;5030356;28;20063;-71
2021/12/01 03:42:44;;;;;;;3.53;1.00;;;10.90;99.90;;;;;;5031922;28;20523;-69
2021/12/01 03:45:12;;;;;;;3.53;0.77;;;10.90;99.90;;;;;;5029734;28;20033;-70
2021/12/01 03:47:37;;;;;;;6.60;0.75;;;10.90;99.90;;;;;;5032284;28;20025;-71
2021/12/01 03:50:04;;;;;;;3.83;0.82;;;10.90;99.90;;;;;;5031262;28;20029;-69
2021/12/01 03:52:30;;;;;;;10.15;1.40;;;10.80;99.90;;;;;;5032089;28;20037;-71
2021/12/01 03:54:56;;;;;;;5.20;0.77;;;10.80;99.90;;;;;;5014868;28;20036;-70
2021/12/01 03:57:22;;;;;;;6.40;1.20;;;10.80;99.90;;;;;;5013679;28;20029;-69
2021/12/01 03:59:47;;;;;;;4.50;0.70;;;10.70;99.90;;;;;;5027170;28;20156;-70
2021/12/01 04:02:13;;;;;;;3.95;0.90;;;10.70;99.90;;;;;;5039199;28;20030;-69
2021/12/01 04:04:39;;;;;;;7.40;1.20;;;10.70;99.90;;;;;;5030776;28;20034;-69
2021/12/01 04:07:05;;;;;;;6.18;0.70;;;10.60;99.90;;;;;;5030197;28;20040;-70
2021/12/01 04:09:32;;;;;;;9.05;1.33;;;10.60;99.90;;;;;;5031525;28;20369;-69
2021/12/01 04:11:58;;;;;;;6.97;1.00;;;10.60;99.90;;;;;;5009161;28;20045;-70
2021/12/01 04:14:24;;;;;;;5.13;0.98;;;10.60;99.90;;;;;;5028607;28;20033;-73
2021/12/01 04:16:49;;;;;;;5.68;0.88;;;10.60;99.90;;;;;;5032142;28;20037;-70
2021/12/01 04:19:18;;;;;;;6.75;1.25;;;10.60;99.90;;;;;;5019141;28;20437;-70
2021/12/01 04:21:44;;;;;;;5.93;1.20;;;10.60;99.90;;;;;;5013762;28;21816;-70
2021/12/01 04:24:10;;;;;;;5.35;0.93;;;10.50;99.90;;;;;;5019346;28;20045;-71
2021/12/01 04:26:36;;;;;;;5.82;1.00;;;10.40;99.90;;;;;;5007152;28;20087;-70
2021/12/01 04:29:05;;;;;;;5.32;1.10;;;10.50;99.90;;;;;;5026101;28;20053;-70
2021/12/01 04:31:34;;;;;;;7.00;1.00;;;10.50;99.90;;;;;;5031083;28;20029;-70
2021/12/01 04:34:00;;;;;;;4.22;0.85;;;10.40;99.90;;;;;;5027615;28;20048;-70
2021/12/01 04:36:29;;;;;;;4.18;0.95;;;10.50;99.90;;;;;;5022445;28;20017;-70
2021/12/01 04:38:56;;;;;;;8.52;1.02;;;10.50;99.90;;;;;;5027429;28;20045;-71
2021/12/01 04:41:23;;;;;;;4.30;0.80;;;10.40;99.90;;;;;;5030532;28;20021;-70
2021/12/01 04:43:49;;;;;;;8.68;0.98;;;10.40;99.90;;;;;;5028016;28;20040;-71
2021/12/01 04:46:19;;;;;;;4.30;0.75;;;10.40;99.90;;;;;;5028874;28;20121;-73
2021/12/01 04:48:46;;;;;;;7.68;1.30;;;10.40;99.90;;;;;;5029758;28;20080;-71
2021/12/01 04:51:12;;;;;;;6.15;0.95;;;10.40;99.90;;;;;;5029777;28;20087;-70
2021/12/01 04:53:38;;;;;;;8.20;0.88;;;10.40;99.90;;;;;;5029196;28;20445;-70
2021/12/01 04:56:04;;;;;;;;;;;10.40;99.90;;;;;;5028706;28;20059;-70
2021/12/01 04:58:30;;;;;;;5.85;0.88;;;10.40;99.90;;;;;;5025224;28;20311;-71
2021/12/01 05:00:58;;;;;;;4.75;0.80;;;10.30;99.90;;;;;;5025981;28;20029;-71
2021/12/01 05:03:24;;;;;;;5.43;0.77;;;10.30;99.90;;;;;;5027943;28;20040;-70
2021/12/01 05:05:50;;;;;;;7.75;0.80;;;10.20;99.90;;;;;;5025422;28;20085;-70
2021/12/01 05:08:16;;;;;;;5.25;0.90;;;10.20;99.90;;;;;;5021381;28;20053;-70
2021/12/01 05:10:42;;;;;;;3.83;0.77;;;10.20;99.90;;;;;;5026461;28;20042;-70
2021/12/01 05:13:08;;;;;;;7.55;0.80;;;10.20;99.90;;;;;;5013184;28;20048;-72
2021/12/01 05:15:34;;;;;;;;;;;10.20;99.90;;;;;;5028258;28;20026;-72
2021/12/01 05:17:59;;;;;;;7.45;1.13;;;10.20;99.90;;;;;;5032207;28;19905;-71
2021/12/01 05:20:25;;;;;;;2.28;0.60;;;10.10;99.90;;;;;;5026541;28;20021;-71
2021/12/01 05:22:51;;;;;;;6.72;0.98;;;10.10;99.90;;;;;;5012782;28;20030;-70
2021/12/01 05:25:16;;;;;;;6.05;1.02;;;10.10;99.90;;;;;;5016632;28;20207;-70
2021/12/01 05:27:42;;;;;;;12.30;1.02;;;10.10;99.90;;;;;;5031913;28;20180;-70
2021/12/01 05:30:08;;;;;;;5.80;1.05;;;10.10;99.90;;;;;;5023682;28;20374;-70
2021/12/01 05:32:37;;;;;;;4.80;0.90;;;10.10;99.90;;;;;;5020776;28;20452;-71
2021/12/01 05:35:03;;;;;;;3.72;0.60;;;10.10;99.90;;;;;;5019562;28;20044;-70
2021/12/01 05:37:29;;;;;;;2.38;0.70;;;10.00;99.90;;;;;;5031759;28;20538;-71
2021/12/01 05:39:55;;;;;;;6.75;0.98;;;10.10;99.90;;;;;;5018540;28;20017;-70
2021/12/01 05:42:21;;;;;;;5.47;0.80;;;10.00;99.90;;;;;;5029812;28;20033;-71
2021/12/01 05:44:47;;;;;;;13.13;1.00;;;10.00;99.90;;;;;;5013813;28;20037;-70
2021/12/01 05:47:13;;;;;;;4.57;0.80;;;10.00;99.90;;;;;;5029728;28;20033;-69
2021/12/01 05:49:43;;;;;;;;;;;10.10;99.90;;;;;;5031300;28;20079;-71
2021/12/01 05:52:09;;;;;;;3.08;0.68;;;10.00;99.90;;;;;;5026831;28;19909;-70
2021/12/01 05:54:36;;;;;;;8.68;1.02;;;9.90;99.90;;;;;;5019222;28;20052;-70
2021/12/01 05:57:02;;;;;;;3.50;0.73;;;9.90;99.90;;;;;;5018248;28;20025;-71
2021/12/01 05:59:28;;;;;;;5.75;0.73;;;10.00;99.90;;;;;;5041287;28;20025;-73
2021/12/01 06:01:54;;;;;;;5.95;0.70;;;9.90;99.90;;;;;;5023853;28;20392;-70
2021/12/01 06:04:23;;;;;;;10.13;1.13;;;9.90;99.90;;;;;;5010156;28;20052;-71
2021/12/01 06:06:49;;;;;;;7.68;0.95;;;9.90;99.90;;;;;;5007491;28;20481;-70
2021/12/01 06:09:15;;;;;;;5.97;0.90;;;9.80;99.90;;;;;;5033806;28;20107;-71
2021/12/01 06:11:41;;;;;;;7.40;0.90;;;9.60;99.90;;;;;;5030253;28;20030;-70
2021/12/01 06:14:08;;;;;;;6.00;0.82;;;9.40;99.90;;;;;;5028937;28;20083;-70
2021/12/01 06:16:33;;;;;;;9.82;0.80;;;9.20;99.90;;;;;;5035376;28;20025;-72
2021/12/01 06:18:59;;;;;;;9.25;1.35;;;9.10;99.90;;;;;;5034370;28;20044;-74
2021/12/01 06:21:25;;;;;;;7.50;0.98;;;9.00;99.90;;;;;;5030406;28;20396;-72
2021/12/01 06:23:50;;;;;;;8.38;0.90;;;9.00;99.90;;;;;;5026156;28;20037;-72
2021/12/01 06:26:16;;;;;;;8.02;1.00;;;8.90;99.90;;;;;;5027642;28;20121;-72
2021/12/01 06:28:42;;;;;;;8.10;0.80;;;8.80;99.90;;;;;;5028748;28;20036;-72
2021/12/01 06:31:08;;;;;;;6.63;0.70;;;8.80;99.90;;;;;;5024267;28;20101;-72
2021/12/01 06:33:34;;;;;;;7.70;1.20;;;8.80;99.90;;;;;;5006762;28;20033;-72
2021/12/01 06:36:00;;;;;;;5.55;0.80;;;8.70;99.90;;;;;;5024687;28;20485;-72
2021/12/01 06:38:26;;;;;;;;;;;8.70;99.90;;;;;;5023521;28;20542;-73
2021/12/01 06:40:52;;;;;;;8.75;0.82;;;8.60;99.90;;;;;;5022383;28;19909;-71
2021/12/01 06:43:18;;;;;;;7.55;0.93;;;8.60;99.90;;;;;;5020691;28;20025;-72
2021/12/01 06:45:44;;;;;;;5.80;0.82;;;8.50;99.90;;;;;;5027141;28;20109;-71
2021/12/01 06:48:09;;;;;;;9.70;0.80;;;8.50;99.90;;;;;;5011446;28;20175;-72
2021/12/01 06:50:35;;;;;;;7.32;0.80;;;8.50;99.90;;;;;;5030100;28;20108;-72
2021/12/01 06:53:01;;;;;;;8.43;1.00;;;8.50;99.90;;;;;;5018708;28;20096;-72
2021/12/01 06:55:27;;;;;;;5.25;0.85;;;8.40;99.90;;;;;;5022635;28;20022;-72
2021/12/01 06:57:52;;;;;;;5.85;0.95;;;8.50;99.90;;;;;;5027023;28;20021;-72
2021/12/01 07:00:20;;;;;;;4.30;0.90;;;8.50;99.90;;;;;;5024449;28;20021;-72
2021/12/01 07:02:46;;;;;;;6.30;0.80;;;8.50;99.90;;;;;;5010785;28;20034;-72
2021/12/01 07:05:12;;;;;;;;;;;8.50;99.90;;;;;;5023035;28;20477;-72
2021/12/01 07:07:38;;;;;;;4.18;0.75;;;8.50;99.90;;;;;;5024970;28;19916;-72
2021/12/01 07:10:05;;;;;;;;;;;8.50;99.90;;;;;;5029860;28;20363;-72
2021/12/01 07:12:31;;;;;;;3.33;0.75;;;8.50;99.90;;;;;;5027798;28;19995;-73
2021/12/01 07:14:57;;;;;;;4.78;0.60;;;8.40;99.90;;;;;;5026633;28;20104;-73
2021/12/01 07:17:25;;;;;;;1.52;0.40;;;8.40;99.90;;;;;;5025690;28;20391;-71
2021/12/01 07:19:51;;;;;;;4.65;0.70;;;8.40;99.90;;;;;;5021195;28;20111;-72
2021/12/01 07:22:16;;;;;;;4.55;0.93;;;8.40;99.90;;;;;;5006919;28;20464;-71
2021/12/01 07:24:44;;;;;;;3.45;0.70;;;8.60;99.90;;;;;;5024462;28;20050;-75
2021/12/01 07:27:10;;;;;;;2.67;0.52;;;8.60;99.90;;;;;;5032933;28;20038;-73
2021/12/01 07:29:36;;;;;;;8.70;0.75;;;8.60;99.90;;;;;;5029310;28;20014;-78
2021/12/01 07:32:04;;;;;;;4.82;0.55;;;8.60;99.90;;;;;;5025926;28;20021;-74
2021/12/01 07:34:30;;;;;;;4.47;0.70;;;8.60;99.90;;;;;;5013075;28;20026;-74
2021/12/01 07:36:55;;;;;;;;;;;8.50;99.90;;;;;;5013957;28;20036;-74
2021/12/01 07:39:21;;;;;;;2.53;0.85;;;8.50;99.90;;;;;;5036954;28;19992;-75
2021/12/01 07:41:48;;;;;;;4.97;0.75;;;8.50;99.90;;;;;;5033130;28;20120;-74
2021/12/01 07:44:14;;;;;;;5.75;0.70;;;8.50;99.90;;;;;;5022577;28;21526;-75
2021/12/01 07:46:40;;;;;;;6.32;1.10;;;8.60;99.90;;;;;;5033915;28;20455;-75
2021/12/01 07:49:06;;;;;;;4.90;0.90;;;8.50;99.90;;;;;;5019708;28;20033;-72
2021/12/01 07:51:32;;;;;;;6.30;0.90;;;8.50;99.90;;;;;;5028690;28;20384;-73
2021/12/01 07:53:58;;;;;;;11.27;1.40;;;8.60;99.90;;;;;;5031987;28;20029;-74
2021/12/01 07:56:23;;;;;;;5.22;1.15;;;8.60;99.90;;;;;;5028871;28;20037;-74
2021/12/01 07:58:49;;;;;;;6.05;1.20;;;8.60;99.90;;;;;;5014033;28;20079;-73
2021/12/01 08:01:15;;;;;;;10.18;1.38;;;8.60;99.90;;;;;;5034622;28;20026;-74
2021/12/01 08:03:41;;;;;;;11.05;1.75;;;8.60;99.90;;;;;;5026501;28;20036;-75
2021/12/01 08:06:07;;;;;;;8.85;1.42;;;8.60;99.90;;;;;;5035485;28;20125;-74
2021/12/01 08:08:33;;;;;;;14.88;2.25;;;8.60;99.90;;;;;;5041397;28;20010;-73
2021/12/01 08:10:58;;;;;;;20.25;2.05;;;8.50;99.90;;;;;;5010398;28;20180;-72
2021/12/01 08:13:24;;;;;;;16.08;1.85;;;8.40;99.90;;;;;;5008780;28;20026;-73
2021/12/01 08:15:51;;;;;;;19.13;2.83;;;8.40;99.90;;;;;;5009303;28;20045;-71
2021/12/01 08:18:16;;;;;;;;;;;8.40;99.90;;;;;;5012905;28;20022;-71
2021/12/01 08:20:42;;;;;;;12.95;2.20;;;8.40;99.90;;;;;;5002083;28;19916;-72
2021/12/01 08:23:08;;;;;;;13.25;1.92;;;8.40;99.90;;;;;;5009417;28;20104;-71
2021/12/01 08:25:35;;;;;;;17.45;2.10;;;8.40;99.90;;;;;;5006554;28;20050;-72
2021/12/01 08:28:02;;;;;;;;;;;8.40;99.90;;;;;;5002432;28;20419;-73
2021/12/01 08:30:28;;;;;;;24.98;2.65;;;8.40;99.90;;;;;;5024269;28;19910;-71
2021/12/01 08:32:54;;;;;;;16.40;2.20;;;8.40;99.90;;;;;;5013628;28;20108;-71
2021/12/01 08:35:21;;;;;;;20.77;2.45;;;8.50;99.90;;;;;;5009337;28;20101;-70
2021/12/01 08:37:46;;;;;;;18.38;2.38;;;8.50;99.90;;;;;;4993188;28;20065;-73
2021/12/01 08:40:14;;;;;;;22.58;2.95;;;8.60;99.90;;;;;;5006929;28;20446;-73
2021/12/01 08:42:41;;;;;;;18.10;2.33;;;8.60;99.90;;;;;;5007643;28;20091;-71
2021/12/01 08:45:07;;;;;;;21.23;2.55;;;8.70;99.90;;;;;;5011468;28;20044;-71
2021/12/01 08:47:33;;;;;;;16.25;2.90;;;8.70;99.90;;;;;;5005871;28;20105;-71
2021/12/01 08:49:59;;;;;;;26.40;3.45;;;8.80;99.90;;;;;;5004907;28;20121;-73
2021/12/01 08:52:25;;;;;;;18.38;2.70;;;8.80;99.90;;;;;;5000089;28;20030;-72
2021/12/01 08:54:51;;;;;;;21.77;2.60;;;8.70;99.90;;;;;;5011642;28;20036;-73
2021/12/01 08:57:17;;;;;;;19.23;2.70;;;8.70;99.90;;;;;;5012618;28;20097;-71
2021/12/01 08:59:44;;;;;;;24.35;2.67;;;8.70;99.90;;;;;;5011340;28;20030;-72
2021/12/01 09:02:10;;;;;;;21.20;2.25;;;8.60;99.90;;;;;;5005207;28;20018;-72
2021/12/01 09:04:36;;;;;;;21.10;2.22;;;8.60;99.90;;;;;;5011202;28;20061;-71
2021/12/01 09:07:03;;;;;;;18.63;2.55;;;8.60;99.90;;;;;;5009220;28;20072;-71
2021/12/01 09:09:29;;;;;;;20.73;2.58;;;8.60;99.90;;;;;;5016882;28;20049;-72
2021/12/01 09:11:54;;;;;;;18.85;2.35;;;8.70;99.90;;;;;;5012257;28;20487;-72
2021/12/01 09:14:26;;;;;;;21.38;2.67;;;8.70;99.90;;;;;;5030058;28;20057;-72
2021/12/01 09:16:54;;;;;;;19.67;2.60;;;8.80;99.90;;;;;;5031039;28;20044;-72
2021/12/01 09:19:19;;;;;;;16.70;2.42;;;8.80;99.90;;;;;;5029925;28;20032;-71
2021/12/01 09:21:46;;;;;;;22.20;2.90;;;8.80;99.90;;;;;;5030161;28;20026;-70
2021/12/01 09:24:14;;;;;;;15.30;2.30;;;8.80;99.90;;;;;;5024009;28;20440;-71
2021/12/01 09:26:40;;;;;;;19.58;2.95;;;8.80;99.90;;;;;;5028360;28;20404;-70
2021/12/01 09:29:06;;;;;;;18.77;2.70;;;8.70;99.90;;;;;;5025414;28;20029;-71
2021/12/01 09:31:32;;;;;;;20.60;2.75;;;8.70;99.90;;;;;;5025877;28;20374;-71
2021/12/01 09:33:59;;;;;;;20.63;2.92;;;8.70;99.90;;;;;;5029619;28;20161;-71
2021/12/01 09:36:24;;;;;;;20.85;2.55;;;8.70;99.90;;;;;;5026238;28;20033;-70
2021/12/01 09:38:50;;;;;;;23.17;2.95;;;8.70;99.90;;;;;;5030684;28;20030;-72
2021/12/01 09:41:16;;;;;;;18.27;2.72;;;8.70;99.90;;;;;;5029094;28;20477;-71
2021/12/01 09:43:42;;;;;;;;;;;8.80;99.90;;;;;;5031792;28;20038;-70
2021/12/01 09:46:09;;;;;;;18.60;2.70;;;8.80;99.90;;;;;;5016930;28;19931;-69
2021/12/01 09:48:37;;;;;;;20.23;2.47;;;8.80;99.90;;;;;;5026413;28;20497;-71
2021/12/01 09:51:03;;;;;;;17.42;2.55;;;8.90;99.90;;;;;;5025932;28;20024;-72
2021/12/01 09:53:29;;;;;;;14.75;2.20;;;8.90;99.90;;;;;;5028634;28;20120;-69
2021/12/01 09:55:54;;;;;;;13.48;2.00;;;8.90;99.90;;;;;;5029748;28;20034;-72
2021/12/01 09:58:24;;;;;;;17.00;2.30;;;8.90;99.90;;;;;;5026129;28;20026;-71
2021/12/01 10:00:53;;;;;;;23.20;2.88;;;9.00;99.90;;;;;;5017461;28;20112;-71
2021/12/01 10:03:20;;;;;;;17.05;2.38;;;9.00;99.90;;;;;;5031296;28;20075;-71
2021/12/01 10:05:45;;;;;;;16.80;2.55;;;9.00;99.90;;;;;;5020658;28;20045;-70
2021/12/01 10:08:19;;;;;;;17.00;2.38;;;9.10;99.90;;;;;;5028358;28;20041;-71
2021/12/01 10:10:45;;;;;;;20.88;2.08;;;9.00;99.90;;;;;;5030111;28;20057;-71
2021/12/01 10:13:10;;;;;;;13.68;2.20;;;9.10;99.90;;;;;;5029979;28;20105;-71
2021/12/01 10:15:36;;;;;;;10.88;2.20;;;9.10;99.90;;;;;;5028490;28;20026;-70
2021/12/01 10:18:10;;;;;;;19.05;2.30;;;9.10;99.90;;;;;;5016071;28;20034;-71
2021/12/01 10:20:36;;;;;;;15.85;2.10;;;9.20;99.90;;;;;;5030754;28;20083;-71
2021/12/01 10:23:14;;;;;;;23.40;2.42;;;9.20;99.90;;;;;;5029323;28;20021;-70
2021/12/01 10:25:41;;;;;;;19.05;2.75;;;9.30;99.90;;;;;;5029438;28;20069;-71
2021/12/01 10:28:06;;;;;;;20.23;2.97;;;9.40;99.90;;;;;;5029265;28;20452;-71
2021/12/01 10:30:43;;;;;;;18.92;2.42;;;9.50;99.90;;;;;;5030803;28;20083;-71
2021/12/01 10:33:11;;;;;;;19.85;2.58;;;9.50;99.90;;;;;;5037040;28;20025;-70
2021/12/01 10:35:37;;;;;;;12.10;2.15;;;9.60;99.90;;;;;;5025328;28;20025;-71
2021/12/01 10:38:06;;;;;;;24.77;2.95;;;9.50;99.90;;;;;;5031380;28;20025;-71
2021/12/01 10:40:32;;;;;;;18.73;2.72;;;9.50;99.90;;;;;;5008939;28;20026;-70
2021/12/01 10:43:02;;;;;;;18.00;3.20;;;9.40;99.90;;;;;;5017659;28;20400;-71
2021/12/01 10:45:38;;;;;;;18.33;2.95;;;9.50;99.90;;;;;;5025282;28;20030;-70
2021/12/01 10:48:06;;;;;;;21.33;2.20;;;9.50;99.90;;;;;;5026611;28;20112;-71
2021/12/01 10:50:37;;;;;;;20.13;2.28;;;9.50;99.90;;;;;;5028427;28;20037;-71
2021/12/01 10:53:06;;;;;;;18.00;2.58;;;9.40;99.90;;;;;;5017741;28;20030;-70
2021/12/01 10:55:32;;;;;;;13.70;2.15;;;9.50;99.90;;;;;;5031827;28;20040;-70
2021/12/01 10:58:02;;;;;;;20.40;2.63;;;9.50;99.90;;;;;;5023301;28;20109;-69
2021/12/01 11:00:38;;;;;;;13.48;2.08;;;9.60;99.90;;;;;;5026862;28;20044;-70
2021/12/01 11:03:07;;;;;;;16.90;2.10;;;9.60;99.90;;;;;;5016240;28;20021;-69
2021/12/01 11:05:40;;;;;;;15.07;2.40;;;9.60;99.90;;;;;;5034027;28;20068;-69
2021/12/01 11:08:27;;;;;;;18.77;2.38;;;9.50;99.90;;;;;;5010999;28;20040;-70
2021/12/01 11:10:55;;;;;;;19.80;2.08;;;9.60;99.90;;;;;;5020594;28;20136;-69
2021/12/01 11:13:23;;;;;;;21.60;2.55;;;9.50;99.90;;;;;;5033306;28;20492;-70
2021/12/01 11:15:58;;;;;;;20.83;2.58;;;9.60;99.90;;;;;;5013242;28;20092;-69
2021/12/01 11:18:30;;;;;;;15.05;2.38;;;9.60;99.90;;;;;;5034246;28;20539;-69
2021/12/01 11:21:07;;;;;;;19.85;2.67;;;9.70;99.90;;;;;;5022947;28;20101;-69
2021/12/01 11:23:35;;;;;;;16.30;2.20;;;9.70;99.90;;;;;;5031628;28;20029;-69
2021/12/01 11:26:05;;;;;;;15.57;2.17;;;9.60;99.90;;;;;;5025897;28;20365;-70
2021/12/01 11:28:33;;;;;;;12.77;2.05;;;9.60;99.90;;;;;;5042594;28;20051;-68
2021/12/01 11:31:05;;;;;;;16.15;2.58;;;9.50;99.90;;;;;;5034516;28;20040;-70
2021/12/01 11:33:31;;;;;;;12.02;1.92;;;9.60;99.90;;;;;;5030743;28;20032;-70
2021/12/01 11:36:04;;;;;;;13.73;2.10;;;9.60;99.90;;;;;;5016113;28;20033;-70
2021/12/01 11:38:30;;;;;;;12.82;1.60;;;9.80;99.90;;;;;;5032040;28;20056;-71
2021/12/01 11:40:56;;;;;;;18.10;2.72;;;9.90;99.90;;;;;;5015352;28;20231;-70
2021/12/01 11:43:25;;;;;;;11.38;2.10;;;9.90;99.90;;;;;;5029527;28;20430;-68
2021/12/01 11:45:52;;;;;;;14.00;2.65;;;9.90;99.90;;;;;;5032015;28;20033;-70
2021/12/01 11:48:20;;;;;;;;;;;9.90;99.90;;;;;;5029994;28;20057;-69
2021/12/01 11:51:15;;;;;;;19.60;2.10;;;9.90;99.90;;;;;;5033319;28;20368;-70
2021/12/01 11:54:06;;;;;;;15.40;2.10;;;10.00;99.90;;;;;;4996993;28;20049;-69
2021/12/01 11:56:34;;;;;;;12.45;1.95;;;10.10;99.90;;;;;;5023153;28;20902;-70
2021/12/01 11:59:15;;;;;;;12.55;1.90;;;10.20;99.90;;;;;;5013085;28;20026;-70
2021/12/01 12:01:51;;;;;;;15.20;2.22;;;10.20;99.90;;;;;;5019153;28;20052;-70
2021/12/01 12:04:21;;;;;;;16.70;2.05;;;10.10;99.90;;;;;;5033575;28;20045;-70
2021/12/01 12:06:52;;;;;;;13.50;2.10;;;10.00;99.90;;;;;;5013728;28;20033;-70
2021/12/01 12:09:20;;;;;;;12.15;1.70;;;9.80;99.90;;;;;;5032787;28;20025;-68
2021/12/01 12:12:09;;;;;;;13.23;1.77;;;9.80;99.90;;;;;;5025263;28;20064;-68
2021/12/01 12:14:54;;;;;;;14.38;2.10;;;9.80;99.90;;;;;;5031998;28;20120;-70
2021/12/01 12:17:35;;;;;;;14.90;1.77;;;9.90;99.90;;;;;;5026709;28;20045;-69
2021/12/01 12:20:22;;;;;;;10.32;1.63;;;9.90;99.90;;;;;;5011375;28;20064;-68
2021/12/01 12:22:48;;;;;;;8.65;1.65;;;9.80;99.90;;;;;;5036465;28;20099;-70
2021/12/01 12:25:36;;;;;;;9.10;1.50;;;9.60;99.90;;;;;;5033377;28;20075;-71
2021/12/01 12:28:30;;;;;;;13.02;1.63;;;9.40;99.90;;;;;;5026608;28;20047;-71
2021/12/01 12:31:02;;;;;;;10.35;1.40;;;9.20;99.90;;;;;;5021398;28;20484;-72
2021/12/01 12:33:39;;;;;;;12.40;1.60;;;9.20;99.90;;;;;;5030496;28;20048;-70
2021/12/01 12:36:09;;;;;;;14.13;1.58;;;9.30;99.90;;;;;;5016281;28;20029;-69
2021/12/01 12:38:35;;;;;;;7.47;1.30;;;9.40;99.90;;;;;;5025617;28;20064;-69
2021/12/01 12:41:07;;;;;;;;;;;9.60;99.90;;;;;;5029416;28;20083;-70
2021/12/01 12:43:35;;;;;;;9.05;1.60;;;9.60;99.90;;;;;;5030955;28;20359;-70
2021/12/01 12:46:03;;;;;;;14.65;1.75;;;9.50;99.90;;;;;;5030650;28;20442;-70
2021/12/01 12:48:32;;;;;;;10.35;1.58;;;9.50;99.90;;;;;;5039476;28;20277;-71
2021/12/01 12:51:14;;;;;;;8.40;1.35;;;9.60;99.90;;;;;;5031614;28;20041;-70
2021/12/01 12:54:18;;;;;;;11.27;2.03;;;9.60;99.90;;;;;;5019366;28;20434;-71
2021/12/01 12:56:50;;;;;;;8.10;1.15;;;9.60;99.90;;;;;;5024805;28;20026;-70
2021/12/01 12:59:23;;;;;;;11.23;1.80;;;9.60;99.90;;;;;;5018956;28;20500;-71